Time;durP1;ratioP1;P1;durP2;ratioP2;P2;SDS_P1;SDS_P2;PMS_P1;PMS_P2;Temp;Humidity;BMP_temperature;BMP_pressure;BME280_temperature;BME280_humidity;BME280_pressure;Samples;Min_cycle;Max_cycle;Signal;HPM_P1;HPM_P2
2022/01/13 00:02:27;;;;;;;;;;;3.40;99.90;;;;;;4884880;29;19936;-87
2022/01/13 00:04:53;;;;;;;;;;;3.70;99.90;;;;;;4900624;29;19967;-87
2022/01/13 00:07:20;;;;;;;;;;;3.40;99.90;;;;;;4900608;29;19935;-86
2022/01/13 00:09:47;;;;;;;;;;;3.30;99.90;;;;;;4900894;29;19928;-86
2022/01/13 00:12:17;;;;;;;;;;;3.30;99.90;;;;;;4900377;29;20276;-87
2022/01/13 00:15:06;;;;;;;;;;;3.50;99.90;;;;;;4900698;29;19927;-85
2022/01/13 00:17:46;;;;;;;;;;;3.30;99.90;;;;;;4900382;29;19927;-86
2022/01/13 00:20:31;;;;;;;;;;;4.00;99.90;;;;;;4900311;29;19928;-85
2022/01/13 00:25:41;;;;;;;;;;;3.70;99.90;;;;;;4899993;29;19934;-86
2022/01/13 00:28:15;;;;;;;;;;;3.30;99.90;;;;;;4899931;29;19955;-85
2022/01/13 00:30:42;;;;;;;;;;;3.50;99.90;;;;;;4899771;29;20342;-86
2022/01/13 00:33:11;;;;;;;;;;;3.30;99.90;;;;;;4900349;29;20331;-84
2022/01/13 00:35:38;;;;;;;;;;;3.40;99.90;;;;;;4899581;29;19931;-85
2022/01/13 00:38:05;;;;;;;;;;;3.20;99.90;;;;;;4900230;29;19928;-86
2022/01/13 00:40:32;;;;;;;;;;;3.20;99.90;;;;;;4900027;29;19970;-87
2022/01/13 00:42:58;;;;;;;;;;;2.90;99.90;;;;;;4899912;29;20027;-87
2022/01/13 00:45:25;;;;;;;;;;;3.70;99.90;;;;;;4899733;29;19983;-85
2022/01/13 00:47:52;;;;;;;;;;;3.20;99.90;;;;;;4900156;29;19991;-86
2022/01/13 00:50:20;;;;;;;;;;;3.10;99.90;;;;;;4899776;29;19928;-87
2022/01/13 00:52:47;;;;;;;;;;;3.30;99.90;;;;;;4899699;29;20015;-86
2022/01/13 00:55:20;;;;;;;;;;;3.50;99.90;;;;;;4899868;29;19931;-86
2022/01/13 00:57:47;;;;;;;;;;;3.10;99.90;;;;;;4899942;29;20031;-86
2022/01/13 01:00:16;;;;;;;;;;;3.30;99.90;;;;;;4898839;29;19936;-86
2022/01/13 01:02:43;;;;;;;;;;;3.10;99.90;;;;;;4896345;29;19983;-85
2022/01/13 01:05:10;;;;;;;;;;;3.20;99.90;;;;;;4898180;29;19931;-86
2022/01/13 01:07:38;;;;;;;;;;;3.10;99.90;;;;;;4899310;29;19984;-86
2022/01/13 01:10:06;;;;;;;;;;;3.60;99.90;;;;;;4899669;29;20387;-87
2022/01/13 01:12:34;;;;;;;;;;;3.10;99.90;;;;;;4899386;29;19975;-86
2022/01/13 01:15:01;;;;;;;;;;;3.10;99.90;;;;;;4899488;29;19967;-86
2022/01/13 01:17:28;;;;;;;;;;;3.10;99.90;;;;;;4899514;29;20000;-87
2022/01/13 01:19:55;;;;;;;;;;;3.10;99.90;;;;;;4899003;29;19927;-83
2022/01/13 01:28:12;;;;;;;;;;;2.90;99.90;;;;;;4875580;29;19983;-87
2022/01/13 01:30:40;;;;;;;;;;;3.00;99.90;;;;;;4898487;29;19928;-86
2022/01/13 01:33:14;;;;;;;;;;;3.00;99.90;;;;;;4898514;29;19927;-87
2022/01/13 01:35:41;;;;;;;;;;;3.00;99.90;;;;;;4899470;29;19959;-87
2022/01/13 01:38:09;;;;;;;;;;;2.90;99.90;;;;;;4899395;29;19927;-86
2022/01/13 01:40:37;;;;;;;;;;;2.90;99.90;;;;;;4899413;29;19927;-85
2022/01/13 01:43:04;;;;;;;;;;;3.30;99.90;;;;;;4898809;29;20416;-86
2022/01/13 01:45:34;;;;;;;;;;;2.90;99.90;;;;;;4899074;29;19932;-86
2022/01/13 01:48:03;;;;;;;;;;;2.80;99.90;;;;;;4902618;29;19931;-86
2022/01/13 01:50:35;;;;;;;;;;;2.80;99.90;;;;;;4903616;29;19975;-86
2022/01/13 01:53:02;;;;;;;;;;;2.50;99.90;;;;;;4902506;29;19974;-85
2022/01/13 01:55:29;;;;;;;;;;;2.80;99.90;;;;;;4904594;29;19935;-86
2022/01/13 01:57:57;;;;;;;;;;;2.90;99.90;;;;;;4905319;29;19931;-85
2022/01/13 02:00:26;;;;;;;;;;;2.80;99.90;;;;;;4905557;29;20296;-87
2022/01/13 02:02:55;;;;;;;;;;;4.00;99.90;;;;;;4905147;29;19928;-86
2022/01/13 02:05:21;;;;;;;;;;;2.80;99.90;;;;;;4903345;29;19927;-87
2022/01/13 02:07:48;;;;;;;;;;;2.80;99.90;;;;;;4902789;29;19928;-85
2022/01/13 02:10:17;;;;;;;;;;;2.80;99.90;;;;;;4902281;29;20030;-87
2022/01/13 02:12:47;;;;;;;;;;;2.70;99.90;;;;;;4895614;29;19939;-85
2022/01/13 02:15:32;;;;;;;;;;;2.80;99.90;;;;;;4860120;29;20006;-85
2022/01/13 02:18:00;;;;;;;;;;;2.70;99.90;;;;;;4861635;29;19928;-85
2022/01/13 02:20:42;;;;;;;;;;;2.70;99.90;;;;;;4860310;29;19927;-85
2022/01/13 02:23:09;;;;;;;;;;;2.80;99.90;;;;;;4861444;29;19953;-85
2022/01/13 02:25:36;;;;;;;;;;;2.40;99.90;;;;;;4860161;29;20049;-86
2022/01/13 02:28:03;;;;;;;;;;;2.80;99.90;;;;;;4858470;29;19934;-86
2022/01/13 02:30:30;;;;;;;;;;;2.80;99.90;;;;;;4861344;29;19966;-85
2022/01/13 02:32:57;;;;;;;;;;;2.70;99.90;;;;;;4864927;29;19927;-86
2022/01/13 02:35:26;;;;;;;;;;;2.70;99.90;;;;;;4902278;29;19928;-86
2022/01/13 02:37:54;;;;;;;;;;;2.60;99.90;;;;;;4902118;29;19928;-85
2022/01/13 02:40:21;;;;;;;;;;;3.40;99.90;;;;;;4902201;29;20374;-86
2022/01/13 02:42:48;;;;;;;;;;;3.00;99.90;;;;;;4901953;29;20378;-86
2022/01/13 02:45:19;;;;;;;;;;;2.70;99.90;;;;;;4902245;29;19971;-86
2022/01/13 02:48:12;;;;;;;;;;;2.70;99.90;;;;;;4901822;29;19928;-86
2022/01/13 02:50:40;;;;;;;;;;;2.60;99.90;;;;;;4902236;29;19935;-86
2022/01/13 02:53:09;;;;;;;;;;;2.60;99.90;;;;;;4902263;29;20023;-86
2022/01/13 02:55:36;;;;;;;;;;;2.60;99.90;;;;;;4902011;29;19927;-86
2022/01/13 02:58:03;;;;;;;;;;;2.60;99.90;;;;;;4900720;29;19959;-87
2022/01/13 03:00:30;;;;;;;;;;;2.70;99.90;;;;;;4901626;29;20287;-87
2022/01/13 03:02:57;;;;;;;;;;;3.40;99.90;;;;;;4900648;29;19928;-86
2022/01/13 03:05:24;;;;;;;;;;;2.60;99.90;;;;;;4901887;29;19971;-86
2022/01/13 03:07:52;;;;;;;;;;;2.60;99.90;;;;;;4900966;29;19952;-87
2022/01/13 03:10:20;;;;;;;;;;;3.70;99.90;;;;;;4901837;29;19963;-87
2022/01/13 03:12:47;;;;;;;;;;;2.70;99.90;;;;;;4901260;29;19975;-86
2022/01/13 03:15:14;;;;;;;;;;;2.90;99.90;;;;;;4901623;29;20438;-87
2022/01/13 03:17:44;;;;;;;;;;;3.10;99.90;;;;;;4901962;29;19927;-87
2022/01/13 03:20:12;;;;;;;;;;;2.70;99.90;;;;;;4901797;29;19976;-87
2022/01/13 03:22:38;;;;;;;;;;;2.70;99.90;;;;;;4901413;29;19932;-88
2022/01/13 03:25:06;;;;;;;;;;;2.60;99.90;;;;;;4901336;29;19928;-88
2022/01/13 03:27:35;;;;;;;;;;;2.60;99.90;;;;;;4901519;29;20390;-87
2022/01/13 03:30:06;;;;;;;;;;;2.60;99.90;;;;;;4901371;29;20006;-87
2022/01/13 03:32:33;;;;;;;;;;;2.60;99.90;;;;;;4901366;29;19928;-88
2022/01/13 03:35:00;;;;;;;;;;;2.70;99.90;;;;;;4900802;29;19986;-87
2022/01/13 03:37:27;;;;;;;;;;;3.30;99.90;;;;;;4900879;29;19927;-87
2022/01/13 03:39:54;;;;;;;;;;;3.30;99.90;;;;;;4900680;29;20331;-87
2022/01/13 03:42:24;;;;;;;;;;;2.50;99.90;;;;;;4900304;29;19928;-87
2022/01/13 03:44:54;;;;;;;;;;;2.50;99.90;;;;;;4900824;29;19928;-87
2022/01/13 03:47:21;;;;;;;;;;;2.50;99.90;;;;;;4900684;29;20335;-87
2022/01/13 03:49:50;;;;;;;;;;;2.50;99.90;;;;;;4900847;29;19978;-87
2022/01/13 03:52:31;;;;;;;;;;;2.40;99.90;;;;;;4901267;29;19927;-86
2022/01/13 03:55:25;;;;;;;;;;;2.40;99.90;;;;;;4900934;29;19928;-86
2022/01/13 03:58:11;;;;;;;;;;;2.50;99.90;;;;;;4867445;29;19976;-88
2022/01/13 04:00:56;;;;;;;;;;;2.40;99.90;;;;;;4901499;29;19928;-87
2022/01/13 04:03:27;;;;;;;;;;;2.40;99.90;;;;;;4903403;29;20352;-87
2022/01/13 04:06:02;;;;;;;;;;;2.50;99.90;;;;;;4903594;29;19928;-87
2022/01/13 04:08:28;;;;;;;;;;;2.30;99.90;;;;;;4903470;29;19933;-86
2022/01/13 04:11:17;;;;;;;;;;;2.40;99.90;;;;;;4901185;29;19949;-87
2022/01/13 04:13:48;;;;;;;;;;;2.40;99.90;;;;;;4894983;29;20287;-87
2022/01/13 04:16:15;;;;;;;;;;;2.30;99.90;;;;;;4900624;29;19928;-87
2022/01/13 04:18:45;;;;;;;;;;;2.20;99.90;;;;;;4900539;29;20441;-87
2022/01/13 04:21:12;;;;;;;;;;;2.20;99.90;;;;;;4900764;29;19931;-87
2022/01/13 04:23:39;;;;;;;;;;;2.30;99.90;;;;;;4900740;29;19927;-86
2022/01/13 04:26:07;;;;;;;;;;;2.10;99.90;;;;;;4900709;29;19928;-87
2022/01/13 04:28:35;;;;;;;;;;;2.20;99.90;;;;;;4900378;29;20338;-87
2022/01/13 04:31:02;;;;;;;;;;;2.20;99.90;;;;;;4900743;29;19931;-87
2022/01/13 04:33:29;;;;;;;;;;;2.20;99.90;;;;;;4900973;29;20409;-88
2022/01/13 04:35:57;;;;;;;;;;;2.20;99.90;;;;;;4901024;29;19932;-87
2022/01/13 04:38:24;;;;;;;;;;;2.10;99.90;;;;;;4900176;29;20401;-86
2022/01/13 04:40:55;;;;;;;;;;;2.10;99.90;;;;;;4900444;29;19931;-88
2022/01/13 04:43:22;;;;;;;;;;;2.30;99.90;;;;;;4900233;29;19963;-86
2022/01/13 04:45:49;;;;;;;;;;;3.40;99.90;;;;;;4900322;29;19927;-87
2022/01/13 04:48:17;;;;;;;;;;;2.00;99.90;;;;;;4900120;29;19931;-87
2022/01/13 04:50:44;;;;;;;;;;;3.40;99.90;;;;;;4900127;29;20434;-88
2022/01/13 04:53:13;;;;;;;;;;;0.80;99.90;;;;;;4898569;29;20395;-87
2022/01/13 04:55:48;;;;;;;;;;;1.80;99.90;;;;;;4899840;29;19935;-87
2022/01/13 04:58:17;;;;;;;;;;;2.70;99.90;;;;;;4899037;29;21802;-87
2022/01/13 05:00:44;;;;;;;;;;;2.10;99.90;;;;;;4900208;29;19975;-87
2022/01/13 05:03:11;;;;;;;;;;;2.10;99.90;;;;;;4899807;29;19974;-87
2022/01/13 05:05:38;;;;;;;;;;;2.10;99.90;;;;;;4890545;29;19934;-87
2022/01/13 05:08:05;;;;;;;;;;;3.20;99.90;;;;;;4899782;29;19928;-87
2022/01/13 05:10:34;;;;;;;;;;;2.10;99.90;;;;;;4899657;29;19931;-86
2022/01/13 05:13:00;;;;;;;;;;;0.10;99.90;;;;;;4899952;29;19966;-87
2022/01/13 05:15:31;;;;;;;;;;;3.80;99.90;;;;;;4899391;29;20350;-87
2022/01/13 05:18:11;;;;;;;;;;;2.10;99.90;;;;;;4899582;29;19967;-87
2022/01/13 05:20:46;;;;;;;;;;;2.00;99.90;;;;;;4899757;29;19967;-87
2022/01/13 05:23:13;;;;;;;;;;;2.20;99.90;;;;;;4899257;29;20318;-85
2022/01/13 05:25:42;;;;;;;;;;;2.70;99.90;;;;;;4899793;29;19928;-86
2022/01/13 05:28:09;;;;;;;;;;;2.00;99.90;;;;;;4899403;29;19992;-85
2022/01/13 05:30:36;;;;;;;;;;;2.00;99.90;;;;;;4899511;29;19927;-85
2022/01/13 05:33:03;;;;;;;;;;;2.20;99.90;;;;;;4899843;29;20306;-86
2022/01/13 05:35:30;;;;;;;;;;;2.00;99.90;;;;;;4899823;29;19928;-86
2022/01/13 05:37:57;;;;;;;;;;;2.00;99.90;;;;;;4899254;29;19966;-86
2022/01/13 05:40:24;;;;;;;;;;;1.90;99.90;;;;;;4899638;29;19934;-86
2022/01/13 05:42:52;;;;;;;;;;;1.80;99.90;;;;;;4899297;29;19927;-86
2022/01/13 05:45:21;;;;;;;;;;;1.80;99.90;;;;;;4899057;29;20382;-86
2022/01/13 05:47:49;;;;;;;;;;;1.90;99.90;;;;;;4899086;29;19927;-87
2022/01/13 05:50:17;;;;;;;;;;;1.90;99.90;;;;;;4898781;29;19927;-86
2022/01/13 05:52:44;;;;;;;;;;;1.90;99.90;;;;;;4899427;29;20285;-87
2022/01/13 05:55:11;;;;;;;;;;;2.10;99.90;;;;;;4898982;29;19931;-86
2022/01/13 05:57:38;;;;;;;;;;;2.00;99.90;;;;;;4899745;29;19975;-87
2022/01/13 06:00:08;;;;;;;;;;;3.30;99.90;;;;;;4898818;29;19931;-86
2022/01/13 06:02:35;;;;;;;;;;;2.20;99.90;;;;;;4899525;29;19975;-87
2022/01/13 06:05:02;;;;;;;;;;;2.00;99.90;;;;;;4899666;29;19931;-87
2022/01/13 06:07:30;;;;;;;;;;;2.00;99.90;;;;;;4900704;29;19931;-86
2022/01/13 06:09:57;;;;;;;;;;;2.00;99.90;;;;;;4902725;29;20442;-86
2022/01/13 06:12:32;;;;;;;;;;;1.90;99.90;;;;;;4903537;29;19935;-85
2022/01/13 06:14:59;;;;;;;;;;;2.30;99.90;;;;;;4904092;29;19934;-86
2022/01/13 06:17:28;;;;;;;;;;;1.10;99.90;;;;;;4899954;29;19931;-87
2022/01/13 06:19:55;;;;;;;;;;;2.20;99.90;;;;;;4898926;29;19975;-87
2022/01/13 06:22:22;;;;;;;;;;;3.00;99.90;;;;;;4899463;29;19928;-87
2022/01/13 06:24:49;;;;;;;;;;;2.40;99.90;;;;;;4898885;29;20384;-86
2022/01/13 06:27:16;;;;;;;;;;;1.90;99.90;;;;;;4881836;29;20355;-86
2022/01/13 06:29:43;;;;;;;;;;;3.00;99.90;;;;;;4899582;29;19932;-86
2022/01/13 06:32:10;;;;;;;;;;;1.80;99.90;;;;;;4899140;29;19927;-86
2022/01/13 06:34:38;;;;;;;;;;;1.90;99.90;;;;;;4902534;29;19927;-86
2022/01/13 06:37:05;;;;;;;;;;;2.40;99.90;;;;;;4902477;29;20426;-85
2022/01/13 06:39:32;;;;;;;;;;;1.90;99.90;;;;;;4902424;29;19935;-87
2022/01/13 06:41:59;;;;;;;;;;;1.90;99.90;;;;;;4902392;29;20295;-86
2022/01/13 06:44:26;;;;;;;;;;;1.90;99.90;;;;;;4894490;29;20398;-86
2022/01/13 06:46:53;;;;;;;;;;;1.90;99.90;;;;;;4902162;29;20367;-86
2022/01/13 06:49:19;;;;;;;;;;;1.90;99.90;;;;;;4901972;29;20391;-86
2022/01/13 06:51:48;;;;;;;;;;;3.10;99.90;;;;;;4902002;29;20348;-87
2022/01/13 06:54:15;;;;;;;;;;;2.20;99.90;;;;;;4900566;29;19952;-87
2022/01/13 06:56:41;;;;;;;;;;;2.00;99.90;;;;;;4901810;29;20030;-88
2022/01/13 06:59:12;;;;;;;;;;;2.00;99.90;;;;;;4901624;29;19928;-87
2022/01/13 07:01:39;;;;;;;;;;;2.00;99.90;;;;;;4902008;29;20058;-86
2022/01/13 07:04:08;;;;;;;;;;;1.90;99.90;;;;;;4901252;29;19928;-86
2022/01/13 07:06:35;;;;;;;;;;;2.40;99.90;;;;;;4901802;29;19934;-87
2022/01/13 07:09:05;;;;;;;;;;;1.90;99.90;;;;;;4902160;29;19959;-87
2022/01/13 07:11:32;;;;;;;;;;;1.90;99.90;;;;;;4901642;29;19927;-86
2022/01/13 07:13:59;;;;;;;;;;;2.00;99.90;;;;;;4901911;29;19931;-86
2022/01/13 07:16:26;;;;;;;;;;;1.50;99.90;;;;;;4901887;29;19935;-86
2022/01/13 07:18:53;;;;;;;;;;;1.90;99.90;;;;;;4901367;29;19927;-86
2022/01/13 07:21:21;;;;;;;;;;;1.90;99.90;;;;;;4901898;29;20014;-85
2022/01/13 07:23:48;;;;;;;;;;;2.20;99.90;;;;;;4858857;29;21287;-87
2022/01/13 07:26:16;;;;;;;;;;;1.90;99.90;;;;;;4847599;29;20234;-86
2022/01/13 07:28:43;;;;;;;;;;;2.90;99.90;;;;;;4848994;29;20197;-86
2022/01/13 07:31:10;;;;;;;;;;;2.10;99.90;;;;;;4859857;29;19988;-86
2022/01/13 07:33:37;;;;;;;;;;;2.20;99.90;;;;;;4843268;29;20018;-87
2022/01/13 07:36:04;;;;;;;;;;;3.30;99.90;;;;;;4872581;29;19959;-88
2022/01/13 07:38:31;;;;;;;;;;;1.80;99.90;;;;;;4872007;29;19979;-87
2022/01/13 07:40:57;;;;;;;;;;;3.00;99.90;;;;;;4884025;29;19932;-88
2022/01/13 07:43:26;;;;;;;;;;;2.40;99.90;;;;;;4886244;29;20144;-86
2022/01/13 07:45:54;;;;;;;;;;;2.00;99.90;;;;;;4862742;29;19983;-88
2022/01/13 07:48:20;;;;;;;;;;;2.20;99.90;;;;;;4862951;29;19932;-88
2022/01/13 07:50:51;;;;;;;;;;;2.00;99.90;;;;;;4859647;29;19928;-85
2022/01/13 07:53:20;;;;;;;;;;;3.20;99.90;;;;;;4883244;29;20018;-88
2022/01/13 07:55:47;;;;;;;;;;;2.00;99.90;;;;;;4893297;29;19934;-86
2022/01/13 07:58:14;;;;;;;;;;;3.00;99.90;;;;;;4891281;29;19963;-87
2022/01/13 08:00:43;;;;;;;;;;;1.00;99.90;;;;;;4893270;29;20275;-89
2022/01/13 08:03:10;;;;;;;;;;;2.10;99.90;;;;;;4892528;29;19933;-88
2022/01/13 08:05:38;;;;;;;;;;;2.20;99.90;;;;;;4896047;29;19950;-88
2022/01/13 08:08:07;;;;;;;;;;;2.20;99.90;;;;;;4889043;29;19931;-86
2022/01/13 08:10:34;;;;;;;;;;;3.60;99.90;;;;;;4854632;29;19935;-88
2022/01/13 08:13:01;;;;;;;;;;;2.80;99.90;;;;;;4892759;29;19937;-88
2022/01/13 08:15:28;;;;;;;;;;;2.40;99.90;;;;;;4898948;29;20359;-87
2022/01/13 08:20:43;;;;;;;;;;;2.30;99.90;;;;;;4892405;29;19998;-88
2022/01/13 08:23:12;;;;;;;;;;;3.30;99.90;;;;;;4898179;29;19927;-85
2022/01/13 08:25:39;;;;;;;;;;;2.40;99.90;;;;;;4893447;29;19956;-85
2022/01/13 08:28:06;;;;;;;;;;;1.00;99.90;;;;;;4894112;29;19935;-86
2022/01/13 08:30:33;;;;;;;;;;;2.90;99.90;;;;;;4893576;29;19996;-85
2022/01/13 08:33:05;;;;;;;;;;;2.30;99.90;;;;;;4899064;29;19927;-85
2022/01/13 08:35:33;;;;;;;;;;;2.40;99.90;;;;;;4887658;29;20318;-85
2022/01/13 08:38:06;;;;;;;;;;;2.10;99.90;;;;;;4892103;29;20387;-87
2022/01/13 08:40:34;;;;;;;;;;;2.30;99.90;;;;;;4892716;29;19934;-87
2022/01/13 08:43:02;;;;;;;;;;;2.60;99.90;;;;;;4877083;29;19939;-86
2022/01/13 08:45:29;;;;;;;;;;;2.30;99.90;;;;;;4885054;29;19952;-86
2022/01/13 08:47:56;;;;;;;;;;;2.50;99.90;;;;;;4896298;29;19942;-88
2022/01/13 08:50:24;;;;;;;;;;;2.70;99.90;;;;;;4889002;29;20347;-88
2022/01/13 08:52:51;;;;;;;;;;;2.50;99.90;;;;;;4892127;29;19997;-89
2022/01/13 08:55:18;;;;;;;;;;;3.20;99.90;;;;;;4893600;29;20055;-89
2022/01/13 08:57:48;;;;;;;;;;;2.80;99.90;;;;;;4859381;29;19927;-84
2022/01/13 09:00:15;;;;;;;;;;;2.20;99.90;;;;;;4858711;29;20338;-86
2022/01/13 09:02:43;;;;;;;;;;;2.40;99.90;;;;;;4851167;29;20532;-86
2022/01/13 09:05:11;;;;;;;;;;;2.30;99.90;;;;;;4858494;29;20303;-87
2022/01/13 09:07:39;;;;;;;;;;;2.70;99.90;;;;;;4868822;29;19954;-88
2022/01/13 09:10:07;;;;;;;;;;;2.50;99.90;;;;;;4895315;29;20018;-84
2022/01/13 09:12:34;;;;;;;;;;;3.00;99.90;;;;;;4887778;29;19991;-86
2022/01/13 09:15:13;;;;;;;;;;;2.70;99.90;;;;;;4892638;29;19932;-86
2022/01/13 09:17:42;;;;;;;;;;;2.90;99.90;;;;;;4896649;29;20025;-85
2022/01/13 09:20:09;;;;;;;;;;;2.70;99.90;;;;;;4894339;29;19928;-87
2022/01/13 09:22:37;;;;;;;;;;;2.60;99.90;;;;;;4895341;29;19931;-86
2022/01/13 09:25:07;;;;;;;;;;;3.50;99.90;;;;;;4893230;29;19950;-86
2022/01/13 09:27:34;;;;;;;;;;;2.70;99.90;;;;;;4890452;29;20425;-87
2022/01/13 09:30:00;;;;;;;;;;;2.70;99.90;;;;;;4884246;29;19935;-86
2022/01/13 09:32:27;;;;;;;;;;;2.70;99.90;;;;;;4891484;29;20297;-86
2022/01/13 09:34:54;;;;;;;;;;;2.70;99.90;;;;;;4850443;29;19935;-86
2022/01/13 09:37:24;;;;;;;;;;;4.30;99.90;;;;;;4871051;29;19931;-87
2022/01/13 09:39:56;;;;;;;;;;;2.70;99.90;;;;;;4888146;29;20867;-88
2022/01/13 09:42:25;;;;;;;;;;;3.20;99.90;;;;;;4888040;29;19934;-85
2022/01/13 09:44:51;;;;;;;;;;;3.20;99.90;;;;;;4887872;29;19963;-85
2022/01/13 09:47:18;;;;;;;;;;;3.10;99.90;;;;;;4891566;29;19939;-85
2022/01/13 09:49:52;;;;;;;;;;;3.20;99.90;;;;;;4891824;29;19928;-86
2022/01/13 09:52:21;;;;;;;;;;;2.90;99.90;;;;;;4888823;29;19942;-84
2022/01/13 09:54:48;;;;;;;;;;;1.20;99.90;;;;;;4889211;29;20450;-86
2022/01/13 09:57:15;;;;;;;;;;;3.10;99.90;;;;;;4886329;29;19927;-86
2022/01/13 09:59:43;;;;;;;;;;;3.10;99.90;;;;;;4888244;29;20414;-86
2022/01/13 10:02:10;;;;;;;;;;;3.10;99.90;;;;;;4888901;29;19934;-87
2022/01/13 10:04:45;;;;;;;;;;;3.20;99.90;;;;;;4890495;29;20024;-85
2022/01/13 10:07:17;;;;;;;;;;;3.20;99.90;;;;;;4887723;29;19927;-85
2022/01/13 10:09:55;;;;;;;;;;;3.30;99.90;;;;;;4891739;29;20030;-85
2022/01/13 10:12:27;;;;;;;;;;;3.20;99.90;;;;;;4888689;29;19934;-86
2022/01/13 10:17:47;;;;;;;;;;;3.30;99.90;;;;;;4894589;29;19938;-86
2022/01/13 10:20:16;;;;;;;;;;;3.30;99.90;;;;;;4890598;29;19936;-87
2022/01/13 10:22:43;;;;;;;;;;;3.40;99.90;;;;;;4898114;29;19931;-87
2022/01/13 10:25:24;;;;;;;;;;;3.50;99.90;;;;;;4889929;29;19935;-86
2022/01/13 10:27:51;;;;;;;;;;;3.50;99.90;;;;;;4882928;29;20663;-87
2022/01/13 10:30:22;;;;;;;;;;;4.10;99.90;;;;;;4849135;29;19935;-86
2022/01/13 10:32:48;;;;;;;;;;;3.90;99.90;;;;;;4885783;29;19927;-85
2022/01/13 10:35:18;;;;;;;;;;;3.80;99.90;;;;;;4890230;29;19927;-85
2022/01/13 10:37:46;;;;;;;;;;;3.90;99.90;;;;;;4890846;29;20682;-85
2022/01/13 10:40:16;;;;;;;;;;;4.10;99.90;;;;;;4898380;29;19935;-86
2022/01/13 10:45:34;;;;;;;;;;;4.10;99.90;;;;;;4872646;29;19946;-85
2022/01/13 10:48:03;;;;;;;;;;;4.30;99.90;;;;;;4885815;29;19936;-85
2022/01/13 10:50:31;;;;;;;;;;;4.40;99.90;;;;;;4868160;29;20651;-86
2022/01/13 10:53:03;;;;;;;;;;;4.60;99.90;;;;;;4870749;29;19931;-85
2022/01/13 10:55:30;;;;;;;;;;;4.90;99.90;;;;;;4881266;29;19931;-85
2022/01/13 10:57:58;;;;;;;;;;;5.20;99.90;;;;;;4874277;29;19932;-87
2022/01/13 11:00:26;;;;;;;;;;;5.00;99.90;;;;;;4895031;29;19940;-86
2022/01/13 11:03:02;;;;;;;;;;;5.10;99.90;;;;;;4893933;29;19927;-86
2022/01/13 11:05:30;;;;;;;;;;;5.30;99.90;;;;;;4870570;29;19928;-87
2022/01/13 11:07:57;;;;;;;;;;;4.00;99.90;;;;;;4899154;29;19935;-86
2022/01/13 11:10:25;;;;;;;;;;;5.50;99.90;;;;;;4896369;29;20031;-86
2022/01/13 11:12:57;;;;;;;;;;;5.60;99.90;;;;;;4894669;29;19928;-87
2022/01/13 11:15:24;;;;;;;;;;;5.70;99.90;;;;;;4879654;29;19935;-86
2022/01/13 11:18:21;;;;;;;;;;;5.70;99.90;;;;;;4889904;29;20026;-86
2022/01/13 11:20:50;;;;;;;;;;;5.70;99.90;;;;;;4888520;29;19928;-85
2022/01/13 11:23:18;;;;;;;;;;;5.90;99.90;;;;;;4895261;29;19927;-86
2022/01/13 11:25:45;;;;;;;;;;;5.80;99.90;;;;;;4897817;29;20036;-85
2022/01/13 11:28:16;;;;;;;;;;;5.80;99.90;;;;;;4896845;29;19931;-86
2022/01/13 11:30:43;;;;;;;;;;;5.60;99.90;;;;;;4893407;29;19951;-86
2022/01/13 11:33:10;;;;;;;;;;;5.70;99.90;;;;;;4891290;29;20003;-85
2022/01/13 11:35:39;;;;;;;;;;;5.80;99.90;;;;;;4869863;29;20421;-87
2022/01/13 11:38:08;;;;;;;;;;;5.90;99.90;;;;;;4875048;29;20141;-85
2022/01/13 11:40:42;;;;;;;;;;;8.60;99.90;;;;;;4886767;29;19935;-86
2022/01/13 11:43:17;;;;;;;;;;;6.00;99.90;;;;;;4887696;29;19963;-86
2022/01/13 11:45:45;;;;;;;;;;;6.00;99.90;;;;;;4883181;29;19942;-86
2022/01/13 11:48:22;;;;;;;;;;;5.90;99.90;;;;;;4896325;29;20018;-85
2022/01/13 11:50:52;;;;;;;;;;;6.00;99.90;;;;;;4893287;29;20413;-87
2022/01/13 11:53:34;;;;;;;;;;;6.30;99.90;;;;;;4893170;29;19940;-86
2022/01/13 11:56:03;;;;;;;;;;;6.10;99.90;;;;;;4886270;29;19932;-86
2022/01/13 11:58:33;;;;;;;;;;;6.10;99.90;;;;;;4892033;29;19943;-86
2022/01/13 12:01:11;;;;;;;;;;;6.00;99.90;;;;;;4875167;29;20293;-87
2022/01/13 12:03:40;;;;;;;;;;;7.10;99.90;;;;;;4895428;29;19935;-86
2022/01/13 12:06:10;;;;;;;;;;;6.50;99.90;;;;;;4891197;29;19938;-87
2022/01/13 12:08:42;;;;;;;;;;;6.30;99.90;;;;;;4883616;29;19927;-86
2022/01/13 12:11:11;;;;;;;;;;;4.80;99.90;;;;;;4872863;29;19980;-87
2022/01/13 12:13:44;;;;;;;;;;;6.40;99.90;;;;;;4894230;29;19931;-87
2022/01/13 12:16:15;;;;;;;;;;;6.20;99.90;;;;;;4896153;29;20011;-84
2022/01/13 12:18:59;;;;;;;;;;;6.30;99.90;;;;;;4898404;29;19928;-87
2022/01/13 12:21:31;;;;;;;;;;;6.30;99.90;;;;;;4894625;29;20385;-87
2022/01/13 12:23:59;;;;;;;;;;;6.30;99.90;;;;;;4894336;29;19946;-87
2022/01/13 12:26:49;;;;;;;;;;;6.40;99.90;;;;;;4889491;29;19946;-87
2022/01/13 12:29:19;;;;;;;;;;;6.60;99.90;;;;;;4881604;29;20444;-90
2022/01/13 12:31:53;;;;;;;;;;;6.70;99.90;;;;;;4859312;29;19927;-87
2022/01/13 12:34:20;;;;;;;;;;;6.80;99.90;;;;;;4875799;29;19927;-86
2022/01/13 12:36:47;;;;;;;;;;;6.60;99.90;;;;;;4897042;29;19927;-87
2022/01/13 12:39:15;;;;;;;;;;;6.80;99.90;;;;;;4897275;29;20018;-87
2022/01/13 12:41:59;;;;;;;;;;;6.80;99.90;;;;;;4888714;29;19928;-87
2022/01/13 12:47:07;;;;;;;;;;;6.30;99.90;;;;;;4893325;29;19947;-87
2022/01/13 12:49:34;;;;;;;;;;;6.00;99.90;;;;;;4894504;29;19927;-87
2022/01/13 12:52:01;;;;;;;;;;;7.00;99.90;;;;;;4897242;29;20036;-87
2022/01/13 12:54:27;;;;;;;;;;;7.10;99.90;;;;;;4892399;29;20524;-88
2022/01/13 12:56:56;;;;;;;;;;;7.20;99.90;;;;;;4892886;29;19987;-88
2022/01/13 12:59:23;;;;;;;;;;;7.10;99.90;;;;;;4889706;29;19958;-87
2022/01/13 13:02:02;;;;;;;;;;;7.20;99.90;;;;;;4895739;29;19978;-87
2022/01/13 13:04:41;;;;;;;;;;;7.40;99.90;;;;;;4893171;29;19983;-87
2022/01/13 13:07:14;;;;;;;;;;;7.20;99.90;;;;;;4896645;29;19935;-87
2022/01/13 13:09:41;;;;;;;;;;;6.70;99.90;;;;;;4891878;29;20015;-88
2022/01/13 13:12:13;;;;;;;;;;;7.40;99.90;;;;;;4896386;29;19931;-86
2022/01/13 13:15:39;;;;;;;;;;;7.30;99.90;;;;;;4895641;29;19927;-86
2022/01/13 13:17:29;;;;;;;;;;;6.80;99.90;;;;;;4894123;29;19928;-87
2022/01/13 13:19:56;;;;;;;;;;;7.40;99.90;;;;;;4892909;29;19935;-87
2022/01/13 13:22:23;;;;;;;;;;;7.80;99.90;;;;;;4896348;29;19946;-88
2022/01/13 13:24:49;;;;;;;;;;;7.60;99.90;;;;;;4896800;29;20422;-87
2022/01/13 13:27:28;;;;;;;;;;;7.60;99.90;;;;;;4898628;29;19943;-88
2022/01/13 13:29:55;;;;;;;;;;;7.80;99.90;;;;;;4897149;29;19927;-88
2022/01/13 13:32:21;;;;;;;;;;;7.80;99.90;;;;;;4897007;29;19975;-89
2022/01/13 13:34:49;;;;;;;;;;;7.70;99.90;;;;;;4886766;29;19935;-89
2022/01/13 13:37:16;;;;;;;;;;;7.80;99.90;;;;;;4895052;29;19927;-89
2022/01/13 13:39:43;;;;;;;;;;;7.80;99.90;;;;;;4886693;29;19927;-89
2022/01/13 13:42:12;;;;;;;;;;;7.90;99.90;;;;;;4879639;29;19932;-88
2022/01/13 13:44:42;;;;;;;;;;;7.80;99.90;;;;;;4892586;29;19927;-88
2022/01/13 13:47:11;;;;;;;;;;;6.60;99.90;;;;;;4894067;29;19995;-88
2022/01/13 13:49:38;;;;;;;;;;;8.00;99.90;;;;;;4893392;29;19928;-88
2022/01/13 13:52:06;;;;;;;;;;;8.10;99.90;;;;;;4893842;29;19967;-89
2022/01/13 13:54:35;;;;;;;;;;;8.20;99.90;;;;;;4889937;29;19928;-89
2022/01/13 13:57:03;;;;;;;;;;;8.20;99.90;;;;;;4891550;29;19936;-89
2022/01/13 13:59:35;;;;;;;;;;;9.30;99.90;;;;;;4868839;29;19990;-91
2022/01/13 14:02:08;;;;;;;;;;;8.20;99.90;;;;;;4892635;29;20032;-87
2022/01/13 14:04:37;;;;;;;;;;;8.30;99.90;;;;;;4874912;29;20707;-88
2022/01/13 14:07:04;;;;;;;;;;;8.30;99.90;;;;;;4887520;29;19935;-88
2022/01/13 14:09:38;;;;;;;;;;;7.40;99.90;;;;;;4894049;29;19936;-88
2022/01/13 14:12:07;;;;;;;;;;;8.50;99.90;;;;;;4893399;29;19931;-90
2022/01/13 14:14:38;;;;;;;;;;;8.50;99.90;;;;;;4895614;29;19969;-88
2022/01/13 14:17:12;;;;;;;;;;;8.50;99.90;;;;;;4892735;29;19943;-86
2022/01/13 14:20:01;;;;;;;;;;;9.70;99.90;;;;;;4894878;29;19971;-88
2022/01/13 14:22:29;;;;;;;;;;;8.80;99.90;;;;;;4892018;29;19936;-86
2022/01/13 14:24:57;;;;;;;;;;;8.90;99.90;;;;;;4851257;29;19993;-86
2022/01/13 14:27:33;;;;;;;;;;;9.20;99.90;;;;;;4896357;29;20022;-90
2022/01/13 14:30:00;;;;;;;;;;;8.80;99.90;;;;;;4885252;29;19927;-88
2022/01/13 14:32:31;;;;;;;;;;;8.50;99.90;;;;;;4886923;29;19991;-87
2022/01/13 14:34:59;;;;;;;;;;;8.50;99.90;;;;;;4891450;29;19981;-87
2022/01/13 14:37:26;;;;;;;;;;;8.80;99.90;;;;;;4895067;29;19927;-87
2022/01/13 14:40:07;;;;;;;;;;;8.50;99.90;;;;;;4892796;29;19935;-87
2022/01/13 14:42:34;;;;;;;;;;;8.80;99.90;;;;;;4893935;29;19983;-87
2022/01/13 14:45:22;;;;;;;;;;;8.60;99.90;;;;;;4887953;29;19942;-88
2022/01/13 14:47:50;;;;;;;;;;;8.50;99.90;;;;;;4887728;29;20000;-88
2022/01/13 14:50:19;;;;;;;;;;;8.60;99.90;;;;;;4893283;29;19935;-88
2022/01/13 14:52:49;;;;;;;;;;;8.60;99.90;;;;;;4888607;29;19935;-85
2022/01/13 14:55:17;;;;;;;;;;;8.60;99.90;;;;;;4892604;29;19936;-87
2022/01/13 14:57:44;;;;;;;;;;;8.50;99.90;;;;;;4895978;29;20413;-86
2022/01/13 15:00:11;;;;;;;;;;;8.40;99.90;;;;;;4888112;29;19934;-86
2022/01/13 15:02:38;;;;;;;;;;;8.60;99.90;;;;;;4893500;29;19935;-87
2022/01/13 15:05:09;;;;;;;;;;;7.70;99.90;;;;;;4896723;29;19938;-87